Detall de PIREP

Printer-friendly versionPDF version

[2015/05/06 08:12:00]
Flight IATA:CT1005
Pilot Number:011
Company ICAO:CAT
Aircraft Type:B738/F
PAX:160
Departing Airport: LIPZ
Destination Airport: EVVA
Alternate Airport:EVRA
Online: VATSIM
Route:ROKIB UZ906 BZO UM726 MAH UL132 DEMUR N746 KOLJA M611 EVONA M850 EDERA
Flight Level:F350
No Slew and time accel
No pause
Crash detect
Detect pilot in Cockpit between each 30 and 45 minutes
08:12 Zero fuel Weight: 135990 Lbs, Fuel Weight: 21294 Lbs
08:12 VATSIM:LIPZ 060750Z 06006KT 030V090 CAVOK 21/15 Q1012
08:12 VATSIM:EVVA 060750Z AUTO 20011KT 7000 OVC004 11/11 Q1007
08:15 Parking Brakes off
08:27 Take-off
08:27 Take off Weight: 156396 Lbs
08:27 Wind: 049º @ 005 Knots Heading: 042º
08:27 POS N45º 30´ 21´´ E012º 21´ 10´´
08:27 Gear Up: 167 Knots
08:27 Flaps:5 at 167 Knots
08:27 Flaps:4 at 177 Knots
08:29 Flaps:3 at 193 Knots
08:30 Flaps:2 at 208 Knots
08:30 Flaps:1 at 208 Knots
08:30 Flaps:0 at 209 Knots
08:42 Wind:160º@037 Knots Heading: 333º Ground Speed: 440 Knots Altitude 33622 ft
08:43 TOC
08:43 Fuel Weight: 16826 Lb
08:57 Wind:326º@020 Knots Heading: 353º Ground Speed: 430 Knots Altitude 35085 ft
09:12 Wind:268º@018 Knots Heading: 008º Ground Speed: 467 Knots Altitude 35052 ft
09:27 Wind:125º@028 Knots Heading: 015º Ground Speed: 478 Knots Altitude 34996 ft
09:42 Wind:170º@024 Knots Heading: 024º Ground Speed: 486 Knots Altitude 34993 ft
09:57 Wind:233º@032 Knots Heading: 030º Ground Speed: 493 Knots Altitude 34908 ft
10:08 TOD
10:08 Fuel Weight: 9229 Lb
10:12 Wind:234º@047 Knots Heading: 056º Ground Speed: 486 Knots Altitude 25623 ft
10:26 Flaps:1 at 233 Knots
10:26 Flaps:2 at 233 Knots
10:26 Flaps:3 at 232 Knots
10:27 Wind:210º@016 Knots Heading: 013º Ground Speed: 243 Knots Altitude 3015 ft
10:28 Flaps:4 at 200 Knots
10:29 Flaps:5 at 194 Knots
10:30 Flaps:6 at 180 Knots
10:30 Gear Down: 175 Knots
10:31 Flaps:7 at 162 Knots
10:32 Flaps:8 at 152 Knots
10:36 TouchDown:Rate -119 ft/min Speed: 115 Knots
10:36 Flaps:0 at 52 Knots
10:36 VATSIM:EVVA 061020Z AUTO 20009KT 3000 BR OVC005 10/10 Q1008
10:36 Land
10:36 Wind:196º@009 Knots
10:36 Heading: 214º
10:36 Flight Duration: 02:09
10:36 Landing Weight: 143357 Lbs
10:36 POS N57º 21´ 22´´ E021º 32´ 32´´
10:39 Parking brakes on
10:39 Block to Block Duration: 02:24
10:39 Final Fuel: 7156 Lbls
10:39 Spent Fuel: 14138 Lbls
10:39 Flight Length: 917 NM
10:39 TOD Land Length: 149 NM

Exportar CSV

Powered by Drupal - Modified by Danger4k